sensor_id;sensor_type;location;lat;lon;timestamp;temperature;humidity
19970;DHT22;10146;47.754;9.566;2023-06-24T00:00:58;15.60;99.90
19970;DHT22;10146;47.754;9.566;2023-06-24T00:03:24;15.50;99.90
19970;DHT22;10146;47.754;9.566;2023-06-24T00:05:49;15.40;99.90
19970;DHT22;10146;47.754;9.566;2023-06-24T00:08:19;15.30;99.90
19970;DHT22;10146;47.754;9.566;2023-06-24T00:10:46;15.20;99.90
19970;DHT22;10146;47.754;9.566;2023-06-24T00:13:13;15.20;99.90
19970;DHT22;10146;47.754;9.566;2023-06-24T00:15:39;15.20;99.90
19970;DHT22;10146;47.754;9.566;2023-06-24T00:18:11;15.10;99.90
19970;DHT22;10146;47.754;9.566;2023-06-24T00:20:37;15.10;99.90
19970;DHT22;10146;47.754;9.566;2023-06-24T00:23:03;15.10;99.90
19970;DHT22;10146;47.754;9.566;2023-06-24T00:25:30;15.10;99.90
19970;DHT22;10146;47.754;9.566;2023-06-24T00:27:55;15.00;99.90
19970;DHT22;10146;47.754;9.566;2023-06-24T00:30:22;15.00;99.90
19970;DHT22;10146;47.754;9.566;2023-06-24T00:32:48;15.00;99.90
19970;DHT22;10146;47.754;9.566;2023-06-24T00:35:14;15.00;99.90
19970;DHT22;10146;47.754;9.566;2023-06-24T00:37:40;15.10;99.90
19970;DHT22;10146;47.754;9.566;2023-06-24T00:40:10;15.10;99.90
19970;DHT22;10146;47.754;9.566;2023-06-24T00:42:37;15.10;99.90
19970;DHT22;10146;47.754;9.566;2023-06-24T00:45:03;15.20;99.90
19970;DHT22;10146;47.754;9.566;2023-06-24T00:47:31;15.20;99.90
19970;DHT22;10146;47.754;9.566;2023-06-24T00:49:57;15.10;99.90
19970;DHT22;10146;47.754;9.566;2023-06-24T00:52:22;15.10;99.90
19970;DHT22;10146;47.754;9.566;2023-06-24T00:54:49;15.00;99.90
19970;DHT22;10146;47.754;9.566;2023-06-24T00:57:15;15.00;99.90
19970;DHT22;10146;47.754;9.566;2023-06-24T00:59:44;14.90;99.90
19970;DHT22;10146;47.754;9.566;2023-06-24T01:02:11;14.80;99.90
19970;DHT22;10146;47.754;9.566;2023-06-24T01:04:37;14.80;99.90
19970;DHT22;10146;47.754;9.566;2023-06-24T01:07:05;14.80;99.90
19970;DHT22;10146;47.754;9.566;2023-06-24T01:09:31;14.80;99.90
19970;DHT22;10146;47.754;9.566;2023-06-24T01:11:56;14.70;99.90
19970;DHT22;10146;47.754;9.566;2023-06-24T01:14:22;14.70;99.90
19970;DHT22;10146;47.754;9.566;2023-06-24T01:16:53;14.60;99.90
19970;DHT22;10146;47.754;9.566;2023-06-24T01:20:02;14.50;99.90
19970;DHT22;10146;47.754;9.566;2023-06-24T01:31:17;14.40;99.90
19970;DHT22;10146;47.754;9.566;2023-06-24T01:33:42;14.50;99.90
19970;DHT22;10146;47.754;9.566;2023-06-24T01:36:15;14.50;99.90
19970;DHT22;10146;47.754;9.566;2023-06-24T01:39:08;14.50;99.90
19970;DHT22;10146;47.754;9.566;2023-06-24T01:41:40;14.50;99.90
19970;DHT22;10146;47.754;9.566;2023-06-24T01:44:08;14.50;99.90
19970;DHT22;10146;47.754;9.566;2023-06-24T01:46:36;14.50;99.90
19970;DHT22;10146;47.754;9.566;2023-06-24T01:49:04;14.60;99.90
19970;DHT22;10146;47.754;9.566;2023-06-24T01:51:32;14.50;99.90
19970;DHT22;10146;47.754;9.566;2023-06-24T01:54:06;14.40;99.90
19970;DHT22;10146;47.754;9.566;2023-06-24T01:56:33;14.40;99.90
19970;DHT22;10146;47.754;9.566;2023-06-24T01:59:02;14.40;99.90
19970;DHT22;10146;47.754;9.566;2023-06-24T02:01:33;14.50;99.90
19970;DHT22;10146;47.754;9.566;2023-06-24T02:04:01;14.50;99.90
19970;DHT22;10146;47.754;9.566;2023-06-24T02:06:29;14.60;99.90
19970;DHT22;10146;47.754;9.566;2023-06-24T02:08:56;14.70;99.90
19970;DHT22;10146;47.754;9.566;2023-06-24T02:11:24;14.80;99.90
19970;DHT22;10146;47.754;9.566;2023-06-24T02:13:53;14.80;99.90
19970;DHT22;10146;47.754;9.566;2023-06-24T02:16:21;14.80;99.90
19970;DHT22;10146;47.754;9.566;2023-06-24T02:18:47;14.80;99.90
19970;DHT22;10146;47.754;9.566;2023-06-24T02:21:16;14.80;99.90
19970;DHT22;10146;47.754;9.566;2023-06-24T02:23:44;14.90;99.90
19970;DHT22;10146;47.754;9.566;2023-06-24T02:26:10;15.00;99.90
19970;DHT22;10146;47.754;9.566;2023-06-24T02:28:37;14.90;99.90
19970;DHT22;10146;47.754;9.566;2023-06-24T02:31:03;14.90;99.90
19970;DHT22;10146;47.754;9.566;2023-06-24T02:33:29;14.90;99.90
19970;DHT22;10146;47.754;9.566;2023-06-24T02:35:55;14.90;99.90
19970;DHT22;10146;47.754;9.566;2023-06-24T02:38:21;15.00;99.90
19970;DHT22;10146;47.754;9.566;2023-06-24T02:40:47;15.00;99.90
19970;DHT22;10146;47.754;9.566;2023-06-24T02:43:14;15.00;99.90
19970;DHT22;10146;47.754;9.566;2023-06-24T02:45:40;15.00;99.90
19970;DHT22;10146;47.754;9.566;2023-06-24T02:48:08;15.00;99.90
19970;DHT22;10146;47.754;9.566;2023-06-24T02:50:36;15.10;99.90
19970;DHT22;10146;47.754;9.566;2023-06-24T02:53:03;15.00;99.90
19970;DHT22;10146;47.754;9.566;2023-06-24T02:55:30;14.90;99.90
19970;DHT22;10146;47.754;9.566;2023-06-24T02:57:57;14.80;99.90
19970;DHT22;10146;47.754;9.566;2023-06-24T03:00:23;14.70;99.90
19970;DHT22;10146;47.754;9.566;2023-06-24T03:02:50;14.70;99.90
19970;DHT22;10146;47.754;9.566;2023-06-24T03:05:16;14.70;99.90
19970;DHT22;10146;47.754;9.566;2023-06-24T03:07:42;14.60;99.90
19970;DHT22;10146;47.754;9.566;2023-06-24T03:10:08;14.60;99.90
19970;DHT22;10146;47.754;9.566;2023-06-24T03:12:36;14.60;99.90
19970;DHT22;10146;47.754;9.566;2023-06-24T03:15:01;14.50;99.90
19970;DHT22;10146;47.754;9.566;2023-06-24T03:17:27;14.50;99.90
19970;DHT22;10146;47.754;9.566;2023-06-24T03:19:53;14.50;99.90
19970;DHT22;10146;47.754;9.566;2023-06-24T03:22:19;14.50;99.90
19970;DHT22;10146;47.754;9.566;2023-06-24T03:24:45;14.40;99.90
19970;DHT22;10146;47.754;9.566;2023-06-24T03:27:10;14.40;99.90
19970;DHT22;10146;47.754;9.566;2023-06-24T03:29:36;14.30;99.90
19970;DHT22;10146;47.754;9.566;2023-06-24T03:32:02;14.30;99.90
19970;DHT22;10146;47.754;9.566;2023-06-24T03:34:27;14.30;99.90
19970;DHT22;10146;47.754;9.566;2023-06-24T03:36:53;14.30;99.90
19970;DHT22;10146;47.754;9.566;2023-06-24T03:39:20;14.20;99.90
19970;DHT22;10146;47.754;9.566;2023-06-24T03:41:46;14.30;99.90
19970;DHT22;10146;47.754;9.566;2023-06-24T03:44:12;14.30;99.90
19970;DHT22;10146;47.754;9.566;2023-06-24T03:46:37;14.30;99.90
19970;DHT22;10146;47.754;9.566;2023-06-24T03:49:03;14.30;99.90
19970;DHT22;10146;47.754;9.566;2023-06-24T03:51:29;14.30;99.90
19970;DHT22;10146;47.754;9.566;2023-06-24T03:53:55;14.30;99.90
19970;DHT22;10146;47.754;9.566;2023-06-24T03:56:20;14.30;99.90
19970;DHT22;10146;47.754;9.566;2023-06-24T03:58:46;14.20;99.90
19970;DHT22;10146;47.754;9.566;2023-06-24T04:01:11;14.20;99.90
19970;DHT22;10146;47.754;9.566;2023-06-24T04:03:37;14.20;99.90
19970;DHT22;10146;47.754;9.566;2023-06-24T04:06:02;14.20;99.90
19970;DHT22;10146;47.754;9.566;2023-06-24T04:08:28;14.20;99.90
19970;DHT22;10146;47.754;9.566;2023-06-24T04:10:57;14.10;99.90
19970;DHT22;10146;47.754;9.566;2023-06-24T04:13:29;14.10;99.90
19970;DHT22;10146;47.754;9.566;2023-06-24T04:15:54;14.10;99.90
19970;DHT22;10146;47.754;9.566;2023-06-24T04:18:20;14.10;99.90
19970;DHT22;10146;47.754;9.566;2023-06-24T04:20:46;14.10;99.90
19970;DHT22;10146;47.754;9.566;2023-06-24T04:23:12;14.10;99.90
19970;DHT22;10146;47.754;9.566;2023-06-24T04:25:39;14.20;99.90
19970;DHT22;10146;47.754;9.566;2023-06-24T04:28:05;14.20;99.90
19970;DHT22;10146;47.754;9.566;2023-06-24T04:30:31;14.20;99.90
19970;DHT22;10146;47.754;9.566;2023-06-24T04:32:57;14.20;99.90
19970;DHT22;10146;47.754;9.566;2023-06-24T04:35:24;14.30;99.90
19970;DHT22;10146;47.754;9.566;2023-06-24T04:37:50;14.40;99.90
19970;DHT22;10146;47.754;9.566;2023-06-24T04:40:17;14.50;99.90
19970;DHT22;10146;47.754;9.566;2023-06-24T04:42:44;14.50;99.90
19970;DHT22;10146;47.754;9.566;2023-06-24T04:45:10;14.60;99.90
19970;DHT22;10146;47.754;9.566;2023-06-24T04:47:35;14.70;99.90
19970;DHT22;10146;47.754;9.566;2023-06-24T04:50:02;14.70;99.90
19970;DHT22;10146;47.754;9.566;2023-06-24T04:52:27;14.60;99.90
19970;DHT22;10146;47.754;9.566;2023-06-24T04:54:53;14.60;99.90
19970;DHT22;10146;47.754;9.566;2023-06-24T04:57:32;14.70;99.90
19970;DHT22;10146;47.754;9.566;2023-06-24T04:59:59;14.70;99.90
19970;DHT22;10146;47.754;9.566;2023-06-24T05:02:27;14.70;99.90
19970;DHT22;10146;47.754;9.566;2023-06-24T05:04:53;14.80;99.90
19970;DHT22;10146;47.754;9.566;2023-06-24T05:07:19;14.80;99.90
19970;DHT22;10146;47.754;9.566;2023-06-24T05:09:48;14.90;99.90
19970;DHT22;10146;47.754;9.566;2023-06-24T05:12:14;15.00;99.90
19970;DHT22;10146;47.754;9.566;2023-06-24T05:14:40;15.10;99.90
19970;DHT22;10146;47.754;9.566;2023-06-24T05:17:06;15.20;99.90
19970;DHT22;10146;47.754;9.566;2023-06-24T05:19:32;15.30;99.90
19970;DHT22;10146;47.754;9.566;2023-06-24T05:21:58;15.50;99.90
19970;DHT22;10146;47.754;9.566;2023-06-24T05:24:23;15.60;99.90
19970;DHT22;10146;47.754;9.566;2023-06-24T05:26:50;15.80;99.90
19970;DHT22;10146;47.754;9.566;2023-06-24T05:29:17;15.90;99.90
19970;DHT22;10146;47.754;9.566;2023-06-24T05:31:43;15.90;99.90
19970;DHT22;10146;47.754;9.566;2023-06-24T05:34:09;16.00;99.90
19970;DHT22;10146;47.754;9.566;2023-06-24T05:36:34;16.20;99.90
19970;DHT22;10146;47.754;9.566;2023-06-24T05:39:00;16.40;99.90
19970;DHT22;10146;47.754;9.566;2023-06-24T05:41:27;16.50;99.90
19970;DHT22;10146;47.754;9.566;2023-06-24T05:44:08;16.70;99.90
19970;DHT22;10146;47.754;9.566;2023-06-24T05:46:37;16.80;99.90
19970;DHT22;10146;47.754;9.566;2023-06-24T05:49:03;16.90;99.90
19970;DHT22;10146;47.754;9.566;2023-06-24T05:51:28;17.00;99.90
19970;DHT22;10146;47.754;9.566;2023-06-24T05:53:54;17.10;99.90
19970;DHT22;10146;47.754;9.566;2023-06-24T05:56:21;17.20;99.90
19970;DHT22;10146;47.754;9.566;2023-06-24T05:58:48;17.40;99.90
19970;DHT22;10146;47.754;9.566;2023-06-24T06:01:14;17.60;99.90
19970;DHT22;10146;47.754;9.566;2023-06-24T06:03:39;17.80;99.90
19970;DHT22;10146;47.754;9.566;2023-06-24T06:06:05;18.00;99.90
19970;DHT22;10146;47.754;9.566;2023-06-24T06:08:30;18.30;99.90
19970;DHT22;10146;47.754;9.566;2023-06-24T06:10:56;18.40;99.90
19970;DHT22;10146;47.754;9.566;2023-06-24T06:13:22;18.60;99.90
19970;DHT22;10146;47.754;9.566;2023-06-24T06:15:47;18.60;99.90
19970;DHT22;10146;47.754;9.566;2023-06-24T06:18:13;18.60;99.90
19970;DHT22;10146;47.754;9.566;2023-06-24T06:20:38;18.70;99.90
19970;DHT22;10146;47.754;9.566;2023-06-24T06:23:04;18.90;99.90
19970;DHT22;10146;47.754;9.566;2023-06-24T06:25:30;19.00;99.90
19970;DHT22;10146;47.754;9.566;2023-06-24T06:27:55;19.10;99.90
19970;DHT22;10146;47.754;9.566;2023-06-24T06:30:21;19.10;99.90
19970;DHT22;10146;47.754;9.566;2023-06-24T06:32:47;19.20;99.90
19970;DHT22;10146;47.754;9.566;2023-06-24T06:35:12;19.30;99.90
19970;DHT22;10146;47.754;9.566;2023-06-24T06:37:38;19.40;99.90
19970;DHT22;10146;47.754;9.566;2023-06-24T06:40:04;19.50;99.90
19970;DHT22;10146;47.754;9.566;2023-06-24T06:42:30;19.60;99.90
19970;DHT22;10146;47.754;9.566;2023-06-24T06:44:55;19.70;99.90
19970;DHT22;10146;47.754;9.566;2023-06-24T06:47:21;19.80;99.90
19970;DHT22;10146;47.754;9.566;2023-06-24T06:49:47;19.90;99.90
19970;DHT22;10146;47.754;9.566;2023-06-24T06:52:12;20.00;99.90
19970;DHT22;10146;47.754;9.566;2023-06-24T06:54:38;20.10;99.90
19970;DHT22;10146;47.754;9.566;2023-06-24T06:57:04;20.30;99.90
19970;DHT22;10146;47.754;9.566;2023-06-24T06:59:31;20.40;99.90
19970;DHT22;10146;47.754;9.566;2023-06-24T07:01:56;20.40;99.90
19970;DHT22;10146;47.754;9.566;2023-06-24T07:04:22;20.60;99.90
19970;DHT22;10146;47.754;9.566;2023-06-24T07:06:48;20.70;99.90
19970;DHT22;10146;47.754;9.566;2023-06-24T07:09:14;20.80;99.90
19970;DHT22;10146;47.754;9.566;2023-06-24T07:11:41;20.90;99.90
19970;DHT22;10146;47.754;9.566;2023-06-24T07:14:06;20.90;99.90
19970;DHT22;10146;47.754;9.566;2023-06-24T07:16:32;21.10;99.90
19970;DHT22;10146;47.754;9.566;2023-06-24T07:18:57;21.40;99.90
19970;DHT22;10146;47.754;9.566;2023-06-24T07:21:23;21.60;99.90
19970;DHT22;10146;47.754;9.566;2023-06-24T07:23:49;21.80;99.90
19970;DHT22;10146;47.754;9.566;2023-06-24T07:26:14;21.90;99.90
19970;DHT22;10146;47.754;9.566;2023-06-24T07:28:40;21.90;99.90
19970;DHT22;10146;47.754;9.566;2023-06-24T07:31:05;21.80;99.90
19970;DHT22;10146;47.754;9.566;2023-06-24T07:33:31;21.70;99.90
19970;DHT22;10146;47.754;9.566;2023-06-24T07:35:57;21.70;99.90
19970;DHT22;10146;47.754;9.566;2023-06-24T07:38:23;21.70;99.90
19970;DHT22;10146;47.754;9.566;2023-06-24T07:40:48;21.80;99.90
19970;DHT22;10146;47.754;9.566;2023-06-24T07:43:14;21.90;99.90
19970;DHT22;10146;47.754;9.566;2023-06-24T07:45:40;22.10;99.90
19970;DHT22;10146;47.754;9.566;2023-06-24T07:48:05;22.00;99.90
19970;DHT22;10146;47.754;9.566;2023-06-24T07:50:33;22.00;99.90
19970;DHT22;10146;47.754;9.566;2023-06-24T07:52:59;22.10;99.90
19970;DHT22;10146;47.754;9.566;2023-06-24T07:55:25;22.30;99.90
19970;DHT22;10146;47.754;9.566;2023-06-24T07:57:50;22.60;99.90
19970;DHT22;10146;47.754;9.566;2023-06-24T08:00:16;22.70;99.90
19970;DHT22;10146;47.754;9.566;2023-06-24T08:02:42;22.70;99.90
19970;DHT22;10146;47.754;9.566;2023-06-24T08:05:08;22.70;99.90
19970;DHT22;10146;47.754;9.566;2023-06-24T08:07:39;22.80;99.90
19970;DHT22;10146;47.754;9.566;2023-06-24T08:10:05;22.90;99.90
19970;DHT22;10146;47.754;9.566;2023-06-24T08:12:31;23.00;99.90
19970;DHT22;10146;47.754;9.566;2023-06-24T08:14:57;23.20;99.90
19970;DHT22;10146;47.754;9.566;2023-06-24T08:17:22;23.60;99.90
19970;DHT22;10146;47.754;9.566;2023-06-24T08:19:48;23.70;99.90
19970;DHT22;10146;47.754;9.566;2023-06-24T08:22:14;23.90;99.90
19970;DHT22;10146;47.754;9.566;2023-06-24T08:24:41;23.50;99.70
19970;DHT22;10146;47.754;9.566;2023-06-24T08:27:06;23.30;99.90
19970;DHT22;10146;47.754;9.566;2023-06-24T08:29:34;23.20;99.90
19970;DHT22;10146;47.754;9.566;2023-06-24T08:31:59;23.30;99.90
19970;DHT22;10146;47.754;9.566;2023-06-24T08:34:25;23.40;99.90
19970;DHT22;10146;47.754;9.566;2023-06-24T08:36:51;23.40;99.70
19970;DHT22;10146;47.754;9.566;2023-06-24T08:39:16;23.30;99.70
19970;DHT22;10146;47.754;9.566;2023-06-24T08:41:42;23.20;99.90
19970;DHT22;10146;47.754;9.566;2023-06-24T08:44:07;23.20;99.30
19970;DHT22;10146;47.754;9.566;2023-06-24T08:46:33;23.00;99.90
19970;DHT22;10146;47.754;9.566;2023-06-24T08:52:00;23.20;98.90
19970;DHT22;10146;47.754;9.566;2023-06-24T08:54:26;23.20;99.70
19970;DHT22;10146;47.754;9.566;2023-06-24T08:56:53;23.40;99.00
19970;DHT22;10146;47.754;9.566;2023-06-24T08:59:18;23.60;98.00
19970;DHT22;10146;47.754;9.566;2023-06-24T09:01:50;23.80;97.60
19970;DHT22;10146;47.754;9.566;2023-06-24T09:04:15;23.80;97.40
19970;DHT22;10146;47.754;9.566;2023-06-24T09:06:41;23.90;96.00
19970;DHT22;10146;47.754;9.566;2023-06-24T09:09:23;23.70;96.10
19970;DHT22;10146;47.754;9.566;2023-06-24T09:11:53;23.60;95.90
19970;DHT22;10146;47.754;9.566;2023-06-24T09:14:19;23.50;96.50
19970;DHT22;10146;47.754;9.566;2023-06-24T09:16:55;23.50;96.80
19970;DHT22;10146;47.754;9.566;2023-06-24T09:19:26;23.70;97.30
19970;DHT22;10146;47.754;9.566;2023-06-24T09:21:56;23.80;95.80
19970;DHT22;10146;47.754;9.566;2023-06-24T09:24:27;23.80;94.60
19970;DHT22;10146;47.754;9.566;2023-06-24T09:26:56;23.80;94.00
19970;DHT22;10146;47.754;9.566;2023-06-24T09:29:35;23.90;93.10
19970;DHT22;10146;47.754;9.566;2023-06-24T09:32:04;23.90;91.30
19970;DHT22;10146;47.754;9.566;2023-06-24T09:34:31;24.00;93.10
19970;DHT22;10146;47.754;9.566;2023-06-24T09:36:58;24.30;92.10
19970;DHT22;10146;47.754;9.566;2023-06-24T09:39:24;24.30;91.90
19970;DHT22;10146;47.754;9.566;2023-06-24T09:41:57;24.20;91.40
19970;DHT22;10146;47.754;9.566;2023-06-24T09:44:24;24.40;90.80
19970;DHT22;10146;47.754;9.566;2023-06-24T09:46:51;24.40;90.40
19970;DHT22;10146;47.754;9.566;2023-06-24T09:49:18;24.40;88.60
19970;DHT22;10146;47.754;9.566;2023-06-24T09:51:45;24.30;88.10
19970;DHT22;10146;47.754;9.566;2023-06-24T09:54:13;24.20;86.40
19970;DHT22;10146;47.754;9.566;2023-06-24T09:56:46;24.40;84.50
19970;DHT22;10146;47.754;9.566;2023-06-24T09:59:13;24.70;83.70
19970;DHT22;10146;47.754;9.566;2023-06-24T10:01:42;24.70;77.70
19970;DHT22;10146;47.754;9.566;2023-06-24T10:04:12;24.90;81.00
19970;DHT22;10146;47.754;9.566;2023-06-24T10:06:38;25.00;81.30
19970;DHT22;10146;47.754;9.566;2023-06-24T10:09:04;25.10;81.20
19970;DHT22;10146;47.754;9.566;2023-06-24T10:11:30;25.20;79.80
19970;DHT22;10146;47.754;9.566;2023-06-24T10:13:56;25.50;79.20
19970;DHT22;10146;47.754;9.566;2023-06-24T10:16:22;25.60;77.00
19970;DHT22;10146;47.754;9.566;2023-06-24T10:18:48;25.60;75.20
19970;DHT22;10146;47.754;9.566;2023-06-24T10:21:15;25.60;75.60
19970;DHT22;10146;47.754;9.566;2023-06-24T10:26:26;25.70;78.00
19970;DHT22;10146;47.754;9.566;2023-06-24T10:34:29;25.70;75.10
19970;DHT22;10146;47.754;9.566;2023-06-24T10:44:58;25.80;74.60
19970;DHT22;10146;47.754;9.566;2023-06-24T10:47:25;25.90;75.30
19970;DHT22;10146;47.754;9.566;2023-06-24T10:49:51;26.10;76.10
19970;DHT22;10146;47.754;9.566;2023-06-24T10:52:22;26.20;76.10
19970;DHT22;10146;47.754;9.566;2023-06-24T10:54:49;26.20;73.70
19970;DHT22;10146;47.754;9.566;2023-06-24T10:57:15;26.10;73.80
19970;DHT22;10146;47.754;9.566;2023-06-24T10:59:47;26.40;76.70
19970;DHT22;10146;47.754;9.566;2023-06-24T11:02:13;26.50;72.80
19970;DHT22;10146;47.754;9.566;2023-06-24T11:04:50;26.50;74.80
19970;DHT22;10146;47.754;9.566;2023-06-24T11:07:23;26.40;74.00
19970;DHT22;10146;47.754;9.566;2023-06-24T11:09:56;26.50;74.50
19970;DHT22;10146;47.754;9.566;2023-06-24T11:12:30;26.50;72.30
19970;DHT22;10146;47.754;9.566;2023-06-24T11:14:57;26.50;69.70
19970;DHT22;10146;47.754;9.566;2023-06-24T11:17:24;26.60;70.50
19970;DHT22;10146;47.754;9.566;2023-06-24T11:19:49;26.70;69.80
19970;DHT22;10146;47.754;9.566;2023-06-24T11:22:15;26.60;70.70
19970;DHT22;10146;47.754;9.566;2023-06-24T11:24:41;26.60;70.60
19970;DHT22;10146;47.754;9.566;2023-06-24T11:27:07;26.60;71.30
19970;DHT22;10146;47.754;9.566;2023-06-24T11:29:33;26.80;71.20
19970;DHT22;10146;47.754;9.566;2023-06-24T11:32:01;26.70;68.20
19970;DHT22;10146;47.754;9.566;2023-06-24T11:34:28;26.70;69.90
19970;DHT22;10146;47.754;9.566;2023-06-24T11:36:53;26.80;68.60
19970;DHT22;10146;47.754;9.566;2023-06-24T11:39:26;27.10;70.40
19970;DHT22;10146;47.754;9.566;2023-06-24T11:41:53;27.20;67.00
19970;DHT22;10146;47.754;9.566;2023-06-24T11:44:20;27.20;68.80
19970;DHT22;10146;47.754;9.566;2023-06-24T11:46:46;26.80;67.50
19970;DHT22;10146;47.754;9.566;2023-06-24T11:49:12;26.10;67.50
19970;DHT22;10146;47.754;9.566;2023-06-24T11:51:46;26.10;68.60
19970;DHT22;10146;47.754;9.566;2023-06-24T11:54:15;26.10;67.70
19970;DHT22;10146;47.754;9.566;2023-06-24T11:56:42;26.40;67.70
19970;DHT22;10146;47.754;9.566;2023-06-24T11:59:25;26.70;67.20
19970;DHT22;10146;47.754;9.566;2023-06-24T12:01:56;27.00;68.70
19970;DHT22;10146;47.754;9.566;2023-06-24T12:04:27;27.00;65.10
19970;DHT22;10146;47.754;9.566;2023-06-24T12:06:53;26.80;65.70
19970;DHT22;10146;47.754;9.566;2023-06-24T12:09:19;26.60;64.10
19970;DHT22;10146;47.754;9.566;2023-06-24T12:11:45;26.80;66.50
19970;DHT22;10146;47.754;9.566;2023-06-24T12:14:10;27.10;64.70
19970;DHT22;10146;47.754;9.566;2023-06-24T12:16:36;27.00;64.30
19970;DHT22;10146;47.754;9.566;2023-06-24T12:19:02;26.80;64.20
19970;DHT22;10146;47.754;9.566;2023-06-24T12:21:27;27.00;63.80
19970;DHT22;10146;47.754;9.566;2023-06-24T12:23:53;27.00;64.70
19970;DHT22;10146;47.754;9.566;2023-06-24T12:26:19;26.90;64.90
19970;DHT22;10146;47.754;9.566;2023-06-24T12:28:44;27.10;65.80
19970;DHT22;10146;47.754;9.566;2023-06-24T12:31:11;27.50;64.60
19970;DHT22;10146;47.754;9.566;2023-06-24T12:33:36;27.70;64.30
19970;DHT22;10146;47.754;9.566;2023-06-24T12:36:02;27.60;62.40
19970;DHT22;10146;47.754;9.566;2023-06-24T12:38:28;27.70;60.30
19970;DHT22;10146;47.754;9.566;2023-06-24T12:40:53;27.90;61.70
19970;DHT22;10146;47.754;9.566;2023-06-24T12:43:19;28.20;64.60
19970;DHT22;10146;47.754;9.566;2023-06-24T12:45:44;28.40;63.10
19970;DHT22;10146;47.754;9.566;2023-06-24T12:48:10;28.50;60.00
19970;DHT22;10146;47.754;9.566;2023-06-24T12:50:36;28.70;60.90
19970;DHT22;10146;47.754;9.566;2023-06-24T12:53:02;28.70;60.00
19970;DHT22;10146;47.754;9.566;2023-06-24T12:55:29;28.60;58.90
19970;DHT22;10146;47.754;9.566;2023-06-24T12:57:54;28.60;60.70
19970;DHT22;10146;47.754;9.566;2023-06-24T13:00:21;28.70;60.00
19970;DHT22;10146;47.754;9.566;2023-06-24T13:02:48;29.00;61.80
19970;DHT22;10146;47.754;9.566;2023-06-24T13:05:14;28.90;59.80
19970;DHT22;10146;47.754;9.566;2023-06-24T13:07:39;29.10;57.00
19970;DHT22;10146;47.754;9.566;2023-06-24T13:10:05;29.30;57.60
19970;DHT22;10146;47.754;9.566;2023-06-24T13:12:32;29.50;57.10
19970;DHT22;10146;47.754;9.566;2023-06-24T13:14:58;29.20;57.20
19970;DHT22;10146;47.754;9.566;2023-06-24T13:17:24;29.40;57.80
19970;DHT22;10146;47.754;9.566;2023-06-24T13:19:50;29.20;56.60
19970;DHT22;10146;47.754;9.566;2023-06-24T13:22:15;28.90;57.50
19970;DHT22;10146;47.754;9.566;2023-06-24T13:24:41;28.30;58.50
19970;DHT22;10146;47.754;9.566;2023-06-24T13:27:07;28.40;59.70
19970;DHT22;10146;47.754;9.566;2023-06-24T13:29:33;28.20;59.60
19970;DHT22;10146;47.754;9.566;2023-06-24T13:31:58;28.60;58.90
19970;DHT22;10146;47.754;9.566;2023-06-24T13:34:24;29.10;58.50
19970;DHT22;10146;47.754;9.566;2023-06-24T13:36:50;29.40;57.80
19970;DHT22;10146;47.754;9.566;2023-06-24T13:39:15;29.60;56.20
19970;DHT22;10146;47.754;9.566;2023-06-24T13:41:47;29.90;56.80
19970;DHT22;10146;47.754;9.566;2023-06-24T13:44:13;30.30;54.40
19970;DHT22;10146;47.754;9.566;2023-06-24T13:46:38;30.30;54.50
19970;DHT22;10146;47.754;9.566;2023-06-24T13:49:04;30.30;55.00
19970;DHT22;10146;47.754;9.566;2023-06-24T13:51:29;30.20;55.40
19970;DHT22;10146;47.754;9.566;2023-06-24T13:53:56;30.20;56.20
19970;DHT22;10146;47.754;9.566;2023-06-24T13:56:23;30.50;55.60
19970;DHT22;10146;47.754;9.566;2023-06-24T13:58:49;30.70;54.90
19970;DHT22;10146;47.754;9.566;2023-06-24T14:01:16;30.80;54.10
19970;DHT22;10146;47.754;9.566;2023-06-24T14:03:42;30.60;54.40
19970;DHT22;10146;47.754;9.566;2023-06-24T14:06:08;30.70;53.00
19970;DHT22;10146;47.754;9.566;2023-06-24T14:08:34;30.90;52.30
19970;DHT22;10146;47.754;9.566;2023-06-24T14:11:00;30.90;52.30
19970;DHT22;10146;47.754;9.566;2023-06-24T14:13:27;31.00;51.40
19970;DHT22;10146;47.754;9.566;2023-06-24T14:15:53;31.20;51.90
19970;DHT22;10146;47.754;9.566;2023-06-24T14:18:19;31.60;51.00
19970;DHT22;10146;47.754;9.566;2023-06-24T14:20:45;31.80;50.50
19970;DHT22;10146;47.754;9.566;2023-06-24T14:23:10;31.70;50.90
19970;DHT22;10146;47.754;9.566;2023-06-24T14:25:36;32.00;51.30
19970;DHT22;10146;47.754;9.566;2023-06-24T14:28:06;32.00;50.90
19970;DHT22;10146;47.754;9.566;2023-06-24T14:30:32;32.10;50.20
19970;DHT22;10146;47.754;9.566;2023-06-24T14:32:57;32.10;49.40
19970;DHT22;10146;47.754;9.566;2023-06-24T14:35:23;31.70;50.00
19970;DHT22;10146;47.754;9.566;2023-06-24T14:37:48;31.80;50.20
19970;DHT22;10146;47.754;9.566;2023-06-24T14:40:14;31.30;50.10
19970;DHT22;10146;47.754;9.566;2023-06-24T14:42:40;30.80;51.00
19970;DHT22;10146;47.754;9.566;2023-06-24T14:45:05;30.80;51.50
19970;DHT22;10146;47.754;9.566;2023-06-24T14:47:31;31.40;50.60
19970;DHT22;10146;47.754;9.566;2023-06-24T14:49:57;31.70;50.00
19970;DHT22;10146;47.754;9.566;2023-06-24T14:52:23;32.30;49.20
19970;DHT22;10146;47.754;9.566;2023-06-24T14:54:48;32.50;48.90
19970;DHT22;10146;47.754;9.566;2023-06-24T14:57:14;33.00;48.30
19970;DHT22;10146;47.754;9.566;2023-06-24T14:59:41;33.30;48.10
19970;DHT22;10146;47.754;9.566;2023-06-24T15:02:07;34.10;45.40
19970;DHT22;10146;47.754;9.566;2023-06-24T15:04:32;34.80;44.30
19970;DHT22;10146;47.754;9.566;2023-06-24T15:06:59;34.90;44.20
19970;DHT22;10146;47.754;9.566;2023-06-24T15:09:25;34.80;43.50
19970;DHT22;10146;47.754;9.566;2023-06-24T15:11:50;35.50;43.30
19970;DHT22;10146;47.754;9.566;2023-06-24T15:14:16;36.10;41.70
19970;DHT22;10146;47.754;9.566;2023-06-24T15:16:42;36.50;41.00
19970;DHT22;10146;47.754;9.566;2023-06-24T15:19:07;36.60;41.40
19970;DHT22;10146;47.754;9.566;2023-06-24T15:21:33;37.40;40.10
19970;DHT22;10146;47.754;9.566;2023-06-24T15:23:59;37.60;39.70
19970;DHT22;10146;47.754;9.566;2023-06-24T15:26:24;36.80;40.10
19970;DHT22;10146;47.754;9.566;2023-06-24T15:28:50;36.90;40.00
19970;DHT22;10146;47.754;9.566;2023-06-24T15:31:15;37.70;39.60
19970;DHT22;10146;47.754;9.566;2023-06-24T15:33:41;38.40;38.20
19970;DHT22;10146;47.754;9.566;2023-06-24T15:36:06;38.70;36.70
19970;DHT22;10146;47.754;9.566;2023-06-24T15:38:33;38.30;37.20
19970;DHT22;10146;47.754;9.566;2023-06-24T15:40:58;38.40;36.70
19970;DHT22;10146;47.754;9.566;2023-06-24T15:43:24;38.80;37.00
19970;DHT22;10146;47.754;9.566;2023-06-24T15:45:50;39.40;36.40
19970;DHT22;10146;47.754;9.566;2023-06-24T15:48:16;39.40;36.50
19970;DHT22;10146;47.754;9.566;2023-06-24T15:50:41;39.20;36.30
19970;DHT22;10146;47.754;9.566;2023-06-24T15:53:07;39.20;36.50
19970;DHT22;10146;47.754;9.566;2023-06-24T15:55:33;38.40;36.30